createdAt,value
2022-12-27T00:01:57.267Z,12.10
2022-12-27T00:04:23.959Z,12.10
2022-12-27T00:06:50.595Z,12.10
2022-12-27T00:09:17.258Z,12.10
2022-12-27T00:11:43.893Z,12.10
2022-12-27T00:14:10.517Z,12.10
2022-12-27T00:16:37.427Z,12.10
2022-12-27T00:19:04.110Z,12.10
2022-12-27T00:21:30.765Z,12.10
2022-12-27T00:23:57.407Z,12.10
2022-12-27T00:26:24.035Z,12.10
2022-12-27T00:28:50.670Z,12.10
2022-12-27T00:31:17.362Z,12.10
2022-12-27T00:33:44.019Z,12.10
2022-12-27T00:36:10.675Z,12.10
2022-12-27T00:38:37.523Z,12.10
2022-12-27T00:41:04.166Z,12.10
2022-12-27T00:43:30.827Z,12.10
2022-12-27T00:45:57.704Z,12.00
2022-12-27T00:48:24.401Z,12.00
2022-12-27T00:50:51.055Z,12.00
2022-12-27T00:53:17.713Z,12.00
2022-12-27T00:55:44.596Z,12.00
2022-12-27T00:58:11.942Z,12.00
2022-12-27T01:00:38.573Z,12.00
2022-12-27T01:03:05.222Z,12.00
2022-12-27T01:05:31.870Z,12.00
2022-12-27T01:07:58.546Z,12.00
2022-12-27T01:10:25.204Z,12.00
2022-12-27T01:12:51.876Z,12.00
2022-12-27T01:15:18.512Z,12.00
2022-12-27T01:17:45.171Z,11.90
2022-12-27T01:20:11.802Z,11.90
2022-12-27T01:22:38.678Z,12.00
2022-12-27T01:25:05.536Z,11.90
2022-12-27T01:27:32.180Z,11.90
2022-12-27T01:29:58.838Z,11.90
2022-12-27T01:32:25.497Z,11.90
2022-12-27T01:34:52.130Z,11.90
2022-12-27T01:37:18.778Z,11.90
2022-12-27T01:39:45.451Z,11.90
2022-12-27T01:42:12.115Z,11.90
2022-12-27T01:44:38.777Z,11.90
2022-12-27T01:47:05.416Z,11.90
2022-12-27T01:49:32.277Z,11.90
2022-12-27T01:51:58.913Z,11.90
2022-12-27T01:54:25.558Z,11.90
2022-12-27T01:56:52.214Z,11.80
2022-12-27T01:59:18.856Z,11.90
2022-12-27T02:01:45.588Z,11.90
2022-12-27T02:04:12.315Z,11.90
2022-12-27T02:06:38.958Z,11.90
2022-12-27T02:09:05.807Z,11.90
2022-12-27T02:11:32.452Z,11.80
2022-12-27T02:13:59.099Z,11.80
2022-12-27T02:16:25.804Z,11.80
2022-12-27T02:18:52.497Z,11.90
2022-12-27T02:21:19.145Z,11.80
2022-12-27T02:23:45.804Z,11.80
2022-12-27T02:26:12.454Z,11.80
2022-12-27T02:28:39.087Z,11.80
2022-12-27T02:31:05.830Z,11.80
2022-12-27T02:33:32.549Z,11.80
2022-12-27T02:35:59.204Z,11.80
2022-12-27T02:38:26.061Z,11.80
2022-12-27T02:40:52.722Z,11.80
2022-12-27T02:43:19.355Z,11.80
2022-12-27T02:45:46.267Z,11.80
2022-12-27T02:48:12.935Z,11.70
2022-12-27T02:50:39.575Z,11.70
2022-12-27T02:53:06.225Z,11.70
2022-12-27T02:55:32.891Z,11.70
2022-12-27T02:57:59.543Z,11.70
2022-12-27T03:00:26.180Z,11.70
2022-12-27T03:02:52.848Z,11.70
2022-12-27T03:05:19.739Z,11.70
2022-12-27T03:07:46.382Z,11.70
2022-12-27T03:10:13.029Z,11.70
2022-12-27T03:12:39.665Z,11.70
2022-12-27T03:15:06.328Z,11.60
2022-12-27T03:17:33.181Z,11.70
2022-12-27T03:19:59.826Z,11.70
2022-12-27T03:22:26.468Z,11.70
2022-12-27T03:24:53.102Z,11.70
2022-12-27T03:27:19.743Z,11.60
2022-12-27T03:29:46.593Z,11.60
2022-12-27T03:32:13.252Z,11.60
2022-12-27T03:34:39.887Z,11.60
2022-12-27T03:37:06.531Z,11.60
2022-12-27T03:39:33.220Z,11.60
2022-12-27T03:41:59.867Z,11.60
2022-12-27T03:44:26.514Z,11.60
2022-12-27T03:46:53.154Z,11.60
2022-12-27T03:49:19.800Z,11.60
2022-12-27T03:51:46.475Z,11.60
2022-12-27T03:54:13.139Z,11.50
2022-12-27T03:56:39.779Z,11.60
2022-12-27T03:59:06.427Z,11.50
2022-12-27T04:01:33.144Z,11.50
2022-12-27T04:04:00.151Z,11.60
2022-12-27T04:06:26.796Z,11.60
2022-12-27T04:08:53.475Z,11.50
2022-12-27T04:11:20.115Z,11.50
2022-12-27T04:13:46.759Z,11.60
2022-12-27T04:16:13.431Z,11.50
2022-12-27T04:18:40.085Z,11.50
2022-12-27T04:21:06.733Z,11.50
2022-12-27T04:23:33.378Z,11.50
2022-12-27T04:26:00.037Z,11.50
2022-12-27T04:28:26.686Z,11.50
2022-12-27T04:30:53.331Z,11.50
2022-12-27T04:33:19.971Z,11.50
2022-12-27T04:35:46.615Z,11.50
2022-12-27T04:38:13.270Z,11.50
2022-12-27T04:40:39.905Z,11.40
2022-12-27T04:43:06.552Z,11.50
2022-12-27T04:45:33.194Z,11.40
2022-12-27T04:47:59.828Z,11.40
2022-12-27T04:50:26.464Z,11.40
2022-12-27T04:52:53.101Z,11.40
2022-12-27T04:55:19.962Z,11.40
2022-12-27T04:57:46.814Z,11.40
2022-12-27T05:00:13.497Z,11.40
2022-12-27T05:02:40.273Z,11.40
2022-12-27T05:05:07.074Z,11.40
2022-12-27T05:07:33.917Z,11.40
2022-12-27T05:10:00.554Z,11.30
2022-12-27T05:12:27.202Z,11.40
2022-12-27T05:14:53.836Z,11.30
2022-12-27T05:17:20.434Z,11.40
2022-12-27T05:19:47.078Z,11.30
2022-12-27T05:22:13.926Z,11.30
2022-12-27T05:24:40.773Z,11.30
2022-12-27T05:27:07.416Z,11.30
2022-12-27T05:29:34.073Z,11.30
2022-12-27T05:32:00.711Z,11.30
2022-12-27T05:34:27.567Z,11.30
2022-12-27T05:36:54.205Z,11.30
2022-12-27T05:39:21.056Z,11.30
2022-12-27T05:41:47.708Z,11.30
2022-12-27T05:44:14.353Z,11.30
2022-12-27T05:46:41.274Z,11.30
2022-12-27T05:49:07.942Z,11.30
2022-12-27T05:51:34.576Z,11.30
2022-12-27T05:54:01.216Z,11.20
2022-12-27T05:56:27.853Z,11.20
2022-12-27T05:58:54.697Z,11.20
2022-12-27T06:01:21.350Z,11.20
2022-12-27T06:03:48.031Z,11.20
2022-12-27T06:06:14.668Z,11.20
2022-12-27T06:08:41.313Z,11.20
2022-12-27T06:11:07.962Z,11.20
2022-12-27T06:13:34.608Z,11.20
2022-12-27T06:16:01.311Z,11.20
2022-12-27T06:18:28.016Z,11.20
2022-12-27T06:20:54.660Z,11.20
2022-12-27T06:23:21.288Z,11.20
2022-12-27T06:25:47.940Z,11.20
2022-12-27T06:28:14.576Z,11.20
2022-12-27T06:30:41.215Z,11.10
2022-12-27T06:33:07.857Z,11.10
2022-12-27T06:35:34.498Z,11.10
2022-12-27T06:38:01.142Z,11.10
2022-12-27T06:40:27.780Z,11.10
2022-12-27T06:42:54.418Z,11.10
2022-12-27T06:45:21.271Z,11.10
2022-12-27T06:47:47.919Z,11.10
2022-12-27T06:50:14.554Z,11.10
2022-12-27T06:52:41.195Z,11.10
2022-12-27T06:55:07.846Z,11.10
2022-12-27T06:57:34.723Z,11.10
2022-12-27T07:00:01.367Z,11.10
2022-12-27T07:02:28.143Z,11.10
2022-12-27T07:04:54.859Z,11.10
2022-12-27T07:07:21.509Z,11.10
2022-12-27T07:09:48.141Z,11.10
2022-12-27T07:12:14.776Z,11.00
2022-12-27T07:14:41.440Z,11.00
2022-12-27T07:17:08.087Z,11.00
2022-12-27T07:19:34.715Z,11.00
2022-12-27T07:22:01.360Z,11.00
2022-12-27T07:24:28.018Z,11.00
2022-12-27T07:26:54.653Z,11.00
2022-12-27T07:29:21.510Z,11.00
2022-12-27T07:31:48.440Z,11.00
2022-12-27T07:34:15.098Z,11.00
2022-12-27T07:36:41.751Z,11.00
2022-12-27T07:39:08.408Z,11.00
2022-12-27T07:41:35.258Z,11.00
2022-12-27T07:44:02.112Z,11.00
2022-12-27T07:46:28.765Z,11.00
2022-12-27T07:48:55.452Z,11.00
2022-12-27T07:51:22.100Z,11.00
2022-12-27T07:53:48.733Z,11.00
2022-12-27T07:56:17.748Z,11.00
2022-12-27T07:58:46.906Z,10.90
2022-12-27T08:01:13.862Z,10.90
2022-12-27T08:03:40.628Z,10.90
2022-12-27T08:06:07.319Z,10.90
2022-12-27T08:08:33.979Z,10.90
2022-12-27T08:11:05.296Z,10.90
2022-12-27T08:13:32.407Z,10.90
2022-12-27T08:15:59.067Z,10.90
2022-12-27T08:18:25.720Z,10.90
2022-12-27T08:20:52.361Z,10.90
2022-12-27T08:23:19.002Z,10.90
2022-12-27T08:25:49.067Z,10.90
2022-12-27T08:28:15.889Z,10.90
2022-12-27T08:30:42.532Z,10.90
2022-12-27T08:33:09.206Z,10.90
2022-12-27T08:35:52.890Z,10.90
2022-12-27T08:38:20.734Z,10.90
2022-12-27T08:40:47.380Z,10.90
2022-12-27T08:43:14.028Z,10.90
2022-12-27T08:45:40.665Z,10.90
2022-12-27T08:48:07.381Z,10.90
2022-12-27T08:50:34.072Z,10.90
2022-12-27T08:53:00.756Z,10.90
2022-12-27T08:55:27.431Z,10.90
2022-12-27T08:57:54.070Z,10.90
2022-12-27T09:00:20.709Z,10.90
2022-12-27T09:02:47.361Z,10.90
2022-12-27T09:05:14.022Z,10.90
2022-12-27T09:07:40.655Z,10.90
2022-12-27T09:10:07.316Z,10.90
2022-12-27T09:12:33.964Z,10.90
2022-12-27T09:15:00.607Z,10.90
2022-12-27T09:17:27.245Z,10.90
2022-12-27T09:19:53.887Z,10.90
2022-12-27T09:22:20.743Z,10.90
2022-12-27T09:24:47.394Z,10.90
2022-12-27T09:27:14.029Z,10.90
2022-12-27T09:29:46.367Z,10.90
2022-12-27T09:32:14.816Z,10.90
2022-12-27T09:34:41.447Z,10.90
2022-12-27T09:37:08.093Z,10.90
2022-12-27T09:39:34.683Z,10.90
2022-12-27T09:44:48.156Z,10.90
2022-12-27T09:47:15.013Z,10.90
2022-12-27T09:49:41.869Z,10.90
2022-12-27T09:52:08.507Z,10.90
2022-12-27T09:54:35.361Z,10.90
2022-12-27T09:57:19.376Z,10.90
2022-12-27T09:59:46.966Z,10.90
2022-12-27T10:02:13.708Z,10.90
2022-12-27T10:05:18.098Z,10.90
2022-12-27T10:07:26.987Z,10.90
2022-12-27T10:09:53.613Z,10.90
2022-12-27T10:12:20.266Z,10.90
2022-12-27T10:14:46.912Z,10.90
2022-12-27T10:17:13.561Z,11.00
2022-12-27T10:19:40.201Z,11.00
2022-12-27T10:22:07.056Z,11.00
2022-12-27T10:24:33.705Z,11.00
2022-12-27T10:27:00.624Z,11.00
2022-12-27T10:29:27.497Z,11.00
2022-12-27T10:31:54.130Z,11.00
2022-12-27T10:34:20.980Z,11.00
2022-12-27T10:36:47.613Z,11.00
2022-12-27T10:39:14.241Z,11.00
2022-12-27T10:41:40.890Z,11.00
2022-12-27T10:44:08.186Z,11.00
2022-12-27T10:46:34.863Z,11.10
2022-12-27T10:51:48.135Z,11.10
2022-12-27T10:54:14.773Z,11.20
2022-12-27T10:56:41.427Z,11.20
2022-12-27T10:59:08.085Z,11.20
2022-12-27T11:01:34.868Z,11.20
2022-12-27T11:04:02.744Z,11.30
2022-12-27T11:06:29.377Z,11.30
2022-12-27T11:08:56.013Z,11.30
2022-12-27T11:11:22.653Z,11.40
2022-12-27T11:13:49.298Z,11.40
2022-12-27T11:16:15.969Z,11.40
2022-12-27T11:18:42.581Z,11.40
2022-12-27T11:21:14.044Z,11.40
2022-12-27T11:23:46.778Z,11.40
2022-12-27T11:26:13.422Z,11.40
2022-12-27T11:28:40.072Z,11.40
2022-12-27T11:31:06.955Z,11.40
2022-12-27T11:33:33.676Z,11.40
2022-12-27T11:36:00.308Z,11.40
2022-12-27T11:38:26.960Z,11.50
2022-12-27T11:40:53.621Z,11.50
2022-12-27T11:43:20.269Z,11.50
2022-12-27T11:45:46.905Z,11.50
2022-12-27T11:48:13.749Z,11.50
2022-12-27T11:50:40.381Z,11.60
2022-12-27T11:53:07.025Z,11.60
2022-12-27T11:55:33.658Z,11.60
2022-12-27T11:58:00.298Z,11.70
2022-12-27T12:00:27.004Z,11.70
2022-12-27T12:02:53.757Z,11.80
2022-12-27T12:05:20.511Z,11.80
2022-12-27T12:07:47.151Z,11.80
2022-12-27T12:10:13.885Z,11.80
2022-12-27T12:12:40.821Z,11.80
2022-12-27T12:15:07.482Z,11.80
2022-12-27T12:17:36.176Z,11.80
2022-12-27T12:20:03.144Z,11.80
2022-12-27T12:22:29.781Z,11.70
2022-12-27T12:24:56.423Z,11.70
2022-12-27T12:27:23.290Z,11.70
2022-12-27T12:29:49.927Z,11.60
2022-12-27T12:32:16.563Z,11.60
2022-12-27T12:34:43.210Z,11.60
2022-12-27T12:37:09.846Z,11.60
2022-12-27T12:39:36.483Z,11.60
2022-12-27T12:42:03.127Z,11.60
2022-12-27T12:44:30.620Z,11.60
2022-12-27T12:46:57.256Z,11.60
2022-12-27T12:49:23.898Z,11.60
2022-12-27T12:51:50.552Z,11.50
2022-12-27T12:54:17.190Z,11.50
2022-12-27T12:56:43.841Z,11.40
2022-12-27T12:59:10.482Z,11.40
2022-12-27T13:01:37.530Z,11.40
2022-12-27T13:04:04.249Z,11.40
2022-12-27T13:06:30.906Z,11.40
2022-12-27T13:08:57.542Z,11.40
2022-12-27T13:11:24.187Z,11.30
2022-12-27T13:13:50.818Z,11.30
2022-12-27T13:16:17.497Z,11.30
2022-12-27T13:18:44.162Z,11.30
2022-12-27T13:21:10.815Z,11.30
2022-12-27T13:23:37.493Z,11.30
2022-12-27T13:26:04.151Z,11.20
2022-12-27T13:28:30.782Z,11.20
2022-12-27T13:30:57.464Z,11.20
2022-12-27T13:33:24.186Z,11.20
2022-12-27T13:35:50.837Z,11.20
2022-12-27T13:38:17.493Z,11.20
2022-12-27T13:40:44.140Z,11.20
2022-12-27T13:43:10.793Z,11.20
2022-12-27T13:45:37.589Z,11.10
2022-12-27T13:48:04.301Z,11.10
2022-12-27T13:50:31.156Z,11.10
2022-12-27T13:53:00.410Z,11.10
2022-12-27T13:55:27.204Z,11.10
2022-12-27T13:57:53.849Z,11.10
2022-12-27T14:00:20.488Z,11.10
2022-12-27T14:02:47.259Z,11.10
2022-12-27T14:05:14.226Z,11.00
2022-12-27T14:07:40.866Z,11.00
2022-12-27T14:10:07.574Z,11.00
2022-12-27T14:12:34.327Z,11.00
2022-12-27T14:15:00.968Z,11.00
2022-12-27T14:17:27.605Z,11.00
2022-12-27T14:19:54.466Z,11.00
2022-12-27T14:22:21.102Z,11.00
2022-12-27T14:24:47.744Z,11.00
2022-12-27T14:27:14.606Z,11.00
2022-12-27T14:29:41.257Z,10.90
2022-12-27T14:32:07.900Z,10.90
2022-12-27T14:34:34.559Z,10.90
2022-12-27T14:37:01.403Z,10.90
2022-12-27T14:39:28.037Z,10.90
2022-12-27T14:41:54.669Z,10.90
2022-12-27T14:44:21.328Z,10.90
2022-12-27T14:46:48.010Z,10.80
2022-12-27T14:49:14.665Z,10.80
2022-12-27T14:52:00.002Z,10.80
2022-12-27T14:54:27.919Z,10.80
2022-12-27T14:56:54.558Z,10.80
2022-12-27T14:59:21.207Z,10.80
2022-12-27T15:01:47.918Z,10.80
2022-12-27T15:04:14.590Z,10.80
2022-12-27T15:06:41.528Z,10.80
2022-12-27T15:09:08.168Z,10.80
2022-12-27T15:11:35.035Z,10.80
2022-12-27T15:14:01.713Z,10.70
2022-12-27T15:16:28.388Z,10.70
2022-12-27T15:18:55.074Z,10.70
2022-12-27T15:21:21.738Z,10.70
2022-12-27T15:23:48.382Z,10.70
2022-12-27T15:26:15.036Z,10.70
2022-12-27T15:28:41.677Z,10.70
2022-12-27T15:31:08.333Z,10.70
2022-12-27T15:33:35.015Z,10.70
2022-12-27T15:36:01.656Z,10.70
2022-12-27T15:38:28.289Z,10.60
2022-12-27T15:40:54.925Z,10.60
2022-12-27T15:43:21.568Z,10.60
2022-12-27T15:45:48.204Z,10.60
2022-12-27T15:48:14.844Z,10.60
2022-12-27T15:50:41.483Z,10.60
2022-12-27T15:53:08.119Z,10.60
2022-12-27T15:55:34.764Z,10.60
2022-12-27T15:58:01.409Z,10.60
2022-12-27T16:00:33.313Z,10.50
2022-12-27T16:03:00.957Z,10.50
2022-12-27T16:05:27.797Z,10.50
2022-12-27T16:07:54.435Z,10.50
2022-12-27T16:10:21.072Z,10.50
2022-12-27T16:12:47.886Z,10.50
2022-12-27T16:15:14.526Z,10.50
2022-12-27T16:17:41.162Z,10.50
2022-12-27T16:20:07.799Z,10.50
2022-12-27T16:22:34.432Z,10.50
2022-12-27T16:25:03.836Z,10.40
2022-12-27T16:27:30.478Z,10.50
2022-12-27T16:29:57.111Z,10.50
2022-12-27T16:32:23.746Z,10.40
2022-12-27T16:34:50.391Z,10.40
2022-12-27T16:37:17.020Z,10.40
2022-12-27T16:39:43.659Z,10.40
2022-12-27T16:42:10.302Z,10.40
2022-12-27T16:44:38.604Z,10.40
2022-12-27T16:47:05.415Z,10.40
2022-12-27T16:49:32.077Z,10.40
2022-12-27T16:51:58.721Z,10.40
2022-12-27T16:54:25.369Z,10.30
2022-12-27T16:56:52.014Z,10.40
2022-12-27T16:59:18.649Z,10.40
2022-12-27T17:01:45.355Z,10.40
2022-12-27T17:04:12.082Z,10.40
2022-12-27T17:06:38.745Z,10.40
2022-12-27T17:09:08.464Z,10.30
2022-12-27T17:11:35.141Z,10.30
2022-12-27T17:14:01.802Z,10.30
2022-12-27T17:16:28.470Z,10.30
2022-12-27T17:18:55.345Z,10.30
2022-12-27T17:21:27.760Z,10.30
2022-12-27T17:23:56.403Z,10.30
2022-12-27T17:26:23.078Z,10.30
2022-12-27T17:28:49.717Z,10.30
2022-12-27T17:31:16.390Z,10.30
2022-12-27T17:33:43.046Z,10.30
2022-12-27T17:36:09.687Z,10.30
2022-12-27T17:38:36.557Z,10.30
2022-12-27T17:41:03.196Z,10.30
2022-12-27T17:43:29.840Z,10.30
2022-12-27T17:45:56.504Z,10.30
2022-12-27T17:48:23.196Z,10.20
2022-12-27T17:50:49.832Z,10.20
2022-12-27T17:53:16.471Z,10.20
2022-12-27T17:55:43.119Z,10.20
2022-12-27T17:58:09.768Z,10.20
2022-12-27T18:00:36.426Z,10.20
2022-12-27T18:03:03.110Z,10.20
2022-12-27T18:05:29.781Z,10.20
2022-12-27T18:07:56.430Z,10.20
2022-12-27T18:10:23.063Z,10.20
2022-12-27T18:12:49.703Z,10.20
2022-12-27T18:15:16.365Z,10.20
2022-12-27T18:17:43.007Z,10.20
2022-12-27T18:20:09.660Z,10.20
2022-12-27T18:22:36.308Z,10.20
2022-12-27T18:25:02.954Z,10.20
2022-12-27T18:27:29.832Z,10.10
2022-12-27T18:29:56.481Z,10.10
2022-12-27T18:32:23.112Z,10.10
2022-12-27T18:34:49.959Z,10.10
2022-12-27T18:37:16.604Z,10.10
2022-12-27T18:39:43.237Z,10.10
2022-12-27T18:42:09.869Z,10.10
2022-12-27T18:44:36.507Z,10.10
2022-12-27T18:47:03.143Z,10.10
2022-12-27T18:49:29.793Z,10.10
2022-12-27T18:51:56.431Z,10.10
2022-12-27T18:54:23.092Z,10.10
2022-12-27T18:56:49.761Z,10.10
2022-12-27T18:59:16.421Z,10.10
2022-12-27T19:01:43.110Z,10.10
2022-12-27T19:04:09.774Z,10.10
2022-12-27T19:06:36.414Z,10.10
2022-12-27T19:09:03.053Z,10.00
2022-12-27T19:11:36.056Z,10.00
2022-12-27T19:14:03.034Z,10.00
2022-12-27T19:16:30.316Z,10.00
2022-12-27T19:18:56.999Z,10.00
2022-12-27T19:21:23.638Z,10.00
2022-12-27T19:23:50.286Z,10.00
2022-12-27T19:26:16.925Z,10.00
2022-12-27T19:28:43.573Z,10.00
2022-12-27T19:31:10.533Z,10.00
2022-12-27T19:33:37.197Z,10.00
2022-12-27T19:36:03.839Z,10.00
2022-12-27T19:38:30.475Z,10.00
2022-12-27T19:41:02.998Z,10.00
2022-12-27T19:43:30.694Z,10.00
2022-12-27T19:45:57.384Z,9.90
2022-12-27T19:48:24.038Z,10.00
2022-12-27T19:50:50.695Z,10.00
2022-12-27T19:53:17.339Z,9.90
2022-12-27T19:55:44.196Z,9.90
2022-12-27T19:58:10.833Z,9.90
2022-12-27T20:00:37.465Z,9.90
2022-12-27T20:03:04.327Z,9.90
2022-12-27T20:06:11.429Z,9.90
2022-12-27T20:08:17.846Z,9.90
2022-12-27T20:10:44.483Z,9.90
2022-12-27T20:13:11.124Z,9.90
2022-12-27T20:15:37.791Z,9.90
2022-12-27T20:18:04.430Z,9.90
2022-12-27T20:20:31.075Z,9.90
2022-12-27T20:22:57.731Z,9.90
2022-12-27T20:25:24.379Z,9.80
2022-12-27T20:27:51.010Z,9.90
2022-12-27T20:30:17.655Z,9.90
2022-12-27T20:32:44.299Z,9.80
2022-12-27T20:35:10.946Z,9.80
2022-12-27T20:37:37.651Z,9.80
2022-12-27T20:40:04.330Z,9.80
2022-12-27T20:42:30.971Z,9.80
2022-12-27T20:44:57.831Z,9.80
2022-12-27T20:47:24.679Z,9.80
2022-12-27T20:49:51.318Z,9.80
2022-12-27T20:52:17.967Z,9.80
2022-12-27T20:54:44.616Z,9.80
2022-12-27T20:57:11.266Z,9.80
2022-12-27T20:59:40.577Z,9.80
2022-12-27T21:02:07.529Z,9.80
2022-12-27T21:04:34.602Z,9.80
2022-12-27T21:07:01.458Z,9.70
2022-12-27T21:09:28.087Z,9.70
2022-12-27T21:11:54.945Z,9.70
2022-12-27T21:14:21.798Z,9.70
2022-12-27T21:16:48.477Z,9.70
2022-12-27T21:19:15.352Z,9.70
2022-12-27T21:21:42.201Z,9.70
2022-12-27T21:24:09.069Z,9.70
2022-12-27T21:26:35.706Z,9.70
2022-12-27T21:29:02.544Z,9.70
2022-12-27T21:31:29.295Z,9.70
2022-12-27T21:33:56.041Z,9.70
2022-12-27T21:36:22.895Z,9.70
2022-12-27T21:38:49.529Z,9.70
2022-12-27T21:41:16.179Z,9.60
2022-12-27T21:43:42.829Z,9.70
2022-12-27T21:46:09.544Z,9.70
2022-12-27T21:48:36.239Z,9.60
2022-12-27T21:51:02.878Z,9.60
2022-12-27T21:53:29.518Z,9.60
2022-12-27T21:55:56.159Z,9.60
2022-12-27T21:58:22.792Z,9.60
2022-12-27T22:00:52.383Z,9.60
2022-12-27T22:03:21.475Z,9.60
2022-12-27T22:05:48.766Z,9.60
2022-12-27T22:08:15.405Z,9.60
2022-12-27T22:10:42.040Z,9.60
2022-12-27T22:13:08.672Z,9.60
2022-12-27T22:15:35.367Z,9.60
2022-12-27T22:18:02.021Z,9.60
2022-12-27T22:20:28.677Z,9.60
2022-12-27T22:22:55.316Z,9.60
2022-12-27T22:25:22.178Z,9.60
2022-12-27T22:27:48.812Z,9.50
2022-12-27T22:30:15.464Z,9.50
2022-12-27T22:32:42.109Z,9.50
2022-12-27T22:35:08.757Z,9.50
2022-12-27T22:37:35.400Z,9.50
2022-12-27T22:40:02.038Z,9.50
2022-12-27T22:42:28.795Z,9.50
2022-12-27T22:44:56.078Z,9.50
2022-12-27T22:47:27.626Z,9.50
2022-12-27T22:49:54.498Z,9.50
2022-12-27T22:52:21.134Z,9.50
2022-12-27T22:55:04.200Z,9.50
2022-12-27T22:57:32.854Z,9.50
2022-12-27T22:59:59.707Z,9.40
2022-12-27T23:02:26.688Z,9.40
2022-12-27T23:04:53.484Z,9.40
2022-12-27T23:07:20.992Z,9.40
2022-12-27T23:10:07.586Z,9.40
2022-12-27T23:12:34.985Z,9.50
2022-12-27T23:15:01.627Z,9.40
2022-12-27T23:17:28.281Z,9.40
2022-12-27T23:19:54.939Z,9.40
2022-12-27T23:22:21.794Z,9.40
2022-12-27T23:24:48.670Z,9.40
2022-12-27T23:27:15.306Z,9.40
2022-12-27T23:29:41.945Z,9.40
2022-12-27T23:32:08.804Z,9.40
2022-12-27T23:34:35.648Z,9.30
2022-12-27T23:37:02.284Z,9.40
2022-12-27T23:39:28.935Z,9.40
2022-12-27T23:41:55.787Z,9.30
2022-12-27T23:44:34.184Z,9.40
2022-12-27T23:47:01.842Z,9.40
2022-12-27T23:49:28.564Z,9.30
2022-12-27T23:51:55.204Z,9.30
2022-12-27T23:54:22.052Z,9.30
2022-12-27T23:56:48.697Z,9.30
2022-12-27T23:59:15.539Z,9.30
